Time;durP1;ratioP1;P1;durP2;ratioP2;P2;SDS_P1;SDS_P2;PMS_P1;PMS_P2;Temp;Humidity;BMP_temperature;BMP_pressure;BME280_temperature;BME280_humidity;BME280_pressure;Samples;Min_cycle;Max_cycle;Signal;HPM_P1;HPM_P2
2024/01/11 00:01:20;;;;;;;45.65;14.88;;;-5.00;99.90;;;;;;5052951;28;20031;-63
2024/01/11 00:03:45;;;;;;;34.08;12.75;;;-5.00;99.90;;;;;;5052888;28;20499;-62
2024/01/11 00:06:11;;;;;;;31.85;12.32;;;-5.00;99.90;;;;;;5052073;28;20074;-62
2024/01/11 00:08:36;;;;;;;31.63;12.77;;;-5.00;99.90;;;;;;5051403;28;20028;-62
2024/01/11 00:11:03;;;;;;;34.20;13.27;;;-5.00;99.90;;;;;;5047457;28;20438;-62
2024/01/11 00:13:29;;;;;;;38.60;13.43;;;-4.90;99.90;;;;;;5050613;28;20048;-61
2024/01/11 00:15:54;;;;;;;33.80;14.57;;;-4.90;99.90;;;;;;5052893;28;20071;-62
2024/01/11 00:18:20;;;;;;;41.28;14.07;;;-5.00;99.90;;;;;;5052547;28;20029;-63
2024/01/11 00:20:46;;;;;;;35.05;14.90;;;-5.00;99.90;;;;;;5052287;28;20031;-62
2024/01/11 00:23:11;;;;;;;34.92;12.95;;;-5.00;99.90;;;;;;5052541;28;20025;-62
2024/01/11 00:25:37;;;;;;;37.05;14.55;;;-5.00;99.90;;;;;;5032993;28;20025;-62
2024/01/11 00:28:02;;;;;;;37.67;15.07;;;-5.00;99.90;;;;;;5039594;28;20403;-61
2024/01/11 00:30:28;;;;;;;37.95;13.38;;;-5.00;99.90;;;;;;5039402;28;20081;-62
2024/01/11 00:32:54;;;;;;;33.58;14.30;;;-5.10;99.90;;;;;;5038291;28;20557;-62
2024/01/11 00:35:20;;;;;;;26.10;12.57;;;-5.10;99.90;;;;;;5052292;28;20069;-62
2024/01/11 00:37:45;;;;;;;34.75;13.48;;;-5.20;99.90;;;;;;5046334;28;20067;-62
2024/01/11 00:40:11;;;;;;;39.95;14.10;;;-5.20;99.90;;;;;;5052040;28;20041;-62
2024/01/11 00:42:37;;;;;;;35.70;13.48;;;-5.30;99.90;;;;;;5052136;28;20057;-61
2024/01/11 00:45:03;;;;;;;34.70;13.60;;;-5.30;99.90;;;;;;5051794;28;20112;-62
2024/01/11 00:47:28;;;;;;;39.10;13.43;;;-5.40;99.90;;;;;;5051919;28;20029;-63
2024/01/11 00:49:54;;;;;;;33.92;13.75;;;-5.40;99.90;;;;;;5052088;28;20024;-63
2024/01/11 00:52:19;;;;;;;32.83;12.10;;;-5.50;99.90;;;;;;5052003;28;20078;-62
2024/01/11 00:54:45;;;;;;;41.65;14.80;;;-5.50;99.90;;;;;;5050893;28;20104;-62
2024/01/11 00:57:10;;;;;;;37.63;14.38;;;-5.50;99.90;;;;;;5043754;28;20029;-62
2024/01/11 00:59:36;;;;;;;30.00;13.90;;;-5.50;99.90;;;;;;5044090;28;20056;-62
2024/01/11 01:02:02;;;;;;;43.13;15.38;;;-5.40;99.90;;;;;;5051916;28;20036;-63
2024/01/11 01:04:27;;;;;;;36.38;13.88;;;-5.40;99.90;;;;;;5049750;28;20033;-63
2024/01/11 01:06:53;;;;;;;37.47;14.73;;;-5.40;99.90;;;;;;5048069;28;20083;-62
2024/01/11 01:09:18;;;;;;;31.95;12.45;;;-5.40;99.90;;;;;;5047877;28;20037;-62
2024/01/11 01:11:44;;;;;;;41.53;13.88;;;-5.40;99.90;;;;;;5051716;28;20495;-63
2024/01/11 01:14:09;;;;;;;34.33;15.57;;;-5.40;99.90;;;;;;5051499;28;20052;-62
2024/01/11 01:16:35;;;;;;;34.75;13.85;;;-5.40;99.90;;;;;;5050567;28;20025;-62
2024/01/11 01:19:01;;;;;;;38.78;14.38;;;-5.40;99.90;;;;;;5051133;28;20035;-62
2024/01/11 01:21:26;;;;;;;28.23;12.38;;;-5.40;99.90;;;;;;5049440;28;20494;-63
2024/01/11 01:23:52;;;;;;;44.25;13.77;;;-5.30;99.90;;;;;;5051259;28;20029;-61
2024/01/11 01:26:18;;;;;;;33.38;12.98;;;-5.30;99.90;;;;;;5051323;28;20033;-61
2024/01/11 01:28:43;;;;;;;39.90;14.23;;;-5.30;99.90;;;;;;5051575;28;20479;-62
2024/01/11 01:31:10;;;;;;;38.03;13.85;;;-5.40;99.90;;;;;;5050520;28;20094;-62
2024/01/11 01:33:35;;;;;;;29.52;12.75;;;-5.40;99.90;;;;;;5038333;28;20021;-63
2024/01/11 01:36:01;;;;;;;42.30;14.45;;;-5.40;99.90;;;;;;5051343;28;20035;-62
2024/01/11 01:38:26;;;;;;;37.33;14.00;;;-5.50;99.90;;;;;;5051463;28;20061;-62
2024/01/11 01:40:52;;;;;;;35.47;12.45;;;-5.50;99.90;;;;;;5051071;28;20029;-62
2024/01/11 01:43:18;;;;;;;35.40;13.77;;;-5.50;99.90;;;;;;5051337;28;20497;-62
2024/01/11 01:45:43;;;;;;;29.57;12.60;;;-5.50;99.90;;;;;;5051052;28;20033;-62
2024/01/11 01:48:09;;;;;;;37.13;12.23;;;-5.50;99.90;;;;;;5051340;28;20437;-61
2024/01/11 01:50:35;;;;;;;39.27;15.00;;;-5.50;99.90;;;;;;5032341;28;20037;-62
2024/01/11 01:53:01;;;;;;;43.97;14.80;;;-5.50;99.90;;;;;;5051105;28;20037;-62
2024/01/11 01:55:28;;;;;;;29.37;12.70;;;-5.50;99.90;;;;;;5050924;28;20116;-61
2024/01/11 01:57:55;;;;;;;40.93;14.40;;;-5.60;99.90;;;;;;5051141;28;20831;-62
2024/01/11 02:00:21;;;;;;;42.37;13.17;;;-5.60;99.90;;;;;;5050864;28;20056;-62
2024/01/11 02:02:51;;;;;;;35.60;12.73;;;-5.60;99.90;;;;;;5044563;28;20048;-62
2024/01/11 02:05:18;;;;;;;40.87;12.77;;;-5.70;99.90;;;;;;5031513;28;20087;-62
2024/01/11 02:07:44;;;;;;;49.40;13.85;;;-5.70;99.90;;;;;;5043468;28;20021;-62
2024/01/11 02:10:10;;;;;;;33.38;13.40;;;-5.70;99.90;;;;;;5047105;28;20550;-63
2024/01/11 02:12:39;;;;;;;37.10;14.20;;;-5.70;99.90;;;;;;5031470;28;20029;-63
2024/01/11 02:15:05;;;;;;;34.27;12.53;;;-5.70;99.90;;;;;;5031177;28;20116;-63
2024/01/11 02:17:31;;;;;;;41.60;14.90;;;-5.70;99.90;;;;;;5049948;28;20163;-63
2024/01/11 02:19:57;;;;;;;36.77;14.10;;;-5.70;99.90;;;;;;5051070;28;20044;-61
2024/01/11 02:22:31;;;;;;;31.70;13.70;;;-5.80;99.90;;;;;;5050793;28;20025;-62
2024/01/11 02:24:58;;;;;;;33.10;14.47;;;-5.80;99.90;;;;;;5051134;28;20025;-63
2024/01/11 02:27:23;;;;;;;43.10;13.85;;;-5.80;99.90;;;;;;5065091;28;20032;-62
2024/01/11 02:29:49;;;;;;;34.50;13.77;;;-5.90;99.90;;;;;;5051500;28;20025;-62
2024/01/11 02:32:15;;;;;;;38.50;14.80;;;-5.90;99.90;;;;;;5045775;28;20039;-63
2024/01/11 02:34:41;;;;;;;38.80;14.90;;;-6.00;99.90;;;;;;5054983;28;20036;-60
2024/01/11 02:37:07;;;;;;;33.17;13.03;;;-6.00;99.90;;;;;;5054678;28;20028;-62
2024/01/11 02:39:33;;;;;;;34.83;13.07;;;-6.10;99.90;;;;;;5053143;28;20044;-61
2024/01/11 02:42:00;;;;;;;33.63;12.43;;;-6.10;99.90;;;;;;5054363;28;20060;-62
2024/01/11 02:44:25;;;;;;;36.67;14.87;;;-6.10;99.90;;;;;;5054420;28;20040;-62
2024/01/11 02:46:51;;;;;;;34.43;13.23;;;-6.10;99.90;;;;;;5052150;28;20025;-62
2024/01/11 02:49:17;;;;;;;32.47;13.13;;;-6.10;99.90;;;;;;5054312;28;20017;-62
2024/01/11 02:51:42;;;;;;;36.20;14.20;;;-6.20;99.90;;;;;;5040916;28;20041;-63
2024/01/11 02:54:08;;;;;;;42.70;13.97;;;-6.20;99.90;;;;;;5034694;28;20582;-62
2024/01/11 02:56:34;;;;;;;33.73;12.60;;;-6.20;99.90;;;;;;5045785;28;20398;-63
2024/01/11 02:58:59;;;;;;;36.73;13.40;;;-6.30;99.90;;;;;;5054724;28;20033;-61
2024/01/11 03:01:25;;;;;;;33.13;12.93;;;-6.30;99.90;;;;;;5053706;28;20043;-63
2024/01/11 03:03:51;;;;;;;33.43;13.00;;;-6.30;99.90;;;;;;5054228;28;20060;-63
2024/01/11 03:06:21;;;;;;;37.90;13.57;;;-6.30;99.90;;;;;;5054011;28;20040;-63
2024/01/11 03:08:48;;;;;;;41.23;13.30;;;-6.30;99.90;;;;;;5053727;28;20399;-62
2024/01/11 03:11:14;;;;;;;33.77;13.90;;;-6.30;99.90;;;;;;5053576;28;20103;-62
2024/01/11 03:13:39;;;;;;;32.77;12.30;;;-6.30;99.90;;;;;;5054207;28;20094;-63
2024/01/11 03:16:05;;;;;;;37.37;13.17;;;-6.30;99.90;;;;;;5054040;28;20052;-62
2024/01/11 03:18:31;;;;;;;29.47;13.03;;;-6.30;99.90;;;;;;5054051;28;20047;-62
2024/01/11 03:20:57;;;;;;;41.00;15.53;;;-6.30;99.90;;;;;;5057241;28;20025;-61
2024/01/11 03:23:22;;;;;;;36.47;14.47;;;-6.30;99.90;;;;;;5073934;28;20033;-63
2024/01/11 03:25:48;;;;;;;36.97;13.90;;;-6.20;99.90;;;;;;5073882;28;20617;-62
2024/01/11 03:28:13;;;;;;;31.43;13.47;;;-6.30;99.90;;;;;;5062408;28;20486;-62
2024/01/11 03:30:39;;;;;;;36.93;12.90;;;-6.20;99.90;;;;;;5048369;28;20029;-62
2024/01/11 03:33:05;;;;;;;32.00;12.67;;;-6.20;99.90;;;;;;5051958;28;20083;-63
2024/01/11 03:35:31;;;;;;;30.63;13.43;;;-6.30;99.90;;;;;;5053154;28;20087;-62
2024/01/11 03:37:56;;;;;;;35.87;13.47;;;-6.40;99.90;;;;;;5053325;28;20029;-65
2024/01/11 03:40:22;;;;;;;31.27;13.17;;;-6.30;99.90;;;;;;5052741;28;20084;-63
2024/01/11 03:42:47;;;;;;;39.63;13.03;;;-6.30;99.90;;;;;;5053274;28;20032;-62
2024/01/11 03:45:13;;;;;;;30.37;13.40;;;-6.30;99.90;;;;;;5052732;28;20021;-62
2024/01/11 03:47:39;;;;;;;39.70;16.27;;;-6.40;99.90;;;;;;5053221;28;20029;-62
2024/01/11 03:50:05;;;;;;;33.87;12.80;;;-6.40;99.90;;;;;;5052727;28;20100;-63
2024/01/11 03:52:30;;;;;;;36.43;13.37;;;-6.40;99.90;;;;;;5052962;28;20506;-64
2024/01/11 03:54:56;;;;;;;35.13;12.53;;;-6.40;99.90;;;;;;5047699;28;20028;-63
2024/01/11 03:57:21;;;;;;;39.20;13.53;;;-6.40;99.90;;;;;;5052512;28;20044;-64
2024/01/11 03:59:47;;;;;;;36.93;13.70;;;-6.50;99.90;;;;;;5052453;28;20033;-64
2024/01/11 04:02:12;;;;;;;30.13;12.40;;;-6.50;99.90;;;;;;5046656;28;20100;-63
2024/01/11 04:04:38;;;;;;;35.90;13.63;;;-6.50;99.90;;;;;;5048429;28;20021;-64
2024/01/11 04:07:04;;;;;;;31.90;13.30;;;-6.60;99.90;;;;;;5048809;28;20031;-63
2024/01/11 04:09:29;;;;;;;40.80;15.37;;;-6.60;99.90;;;;;;5047037;28;20078;-64
2024/01/11 04:11:55;;;;;;;34.30;13.33;;;-6.60;99.90;;;;;;5043186;28;20021;-63
2024/01/11 04:14:21;;;;;;;33.07;13.07;;;-6.50;99.90;;;;;;5046381;28;20030;-64
2024/01/11 04:16:46;;;;;;;35.63;13.63;;;-6.30;99.90;;;;;;5039702;28;20033;-64
2024/01/11 04:19:12;;;;;;;35.50;14.73;;;-6.20;99.90;;;;;;5051706;28;20056;-64
2024/01/11 04:21:41;;;;;;;31.17;13.70;;;-6.20;99.90;;;;;;5039790;28;20021;-64
2024/01/11 04:24:07;;;;;;;31.37;13.83;;;-6.20;99.90;;;;;;5044904;28;20467;-64
2024/01/11 04:26:33;;;;;;;36.97;13.90;;;-6.20;99.90;;;;;;5043292;28;20104;-65
2024/01/11 04:28:59;;;;;;;30.43;12.17;;;-6.30;99.90;;;;;;5051407;28;20107;-63
2024/01/11 04:31:26;;;;;;;38.13;13.33;;;-6.40;99.90;;;;;;5041820;28;20025;-64
2024/01/11 04:33:51;;;;;;;37.30;13.70;;;-6.50;99.90;;;;;;5050639;28;20455;-64
2024/01/11 04:36:17;;;;;;;33.63;13.10;;;-6.50;99.90;;;;;;5051043;28;20108;-64
2024/01/11 04:38:44;;;;;;;32.73;13.10;;;-6.50;99.90;;;;;;5050038;28;20023;-64
2024/01/11 04:41:10;;;;;;;33.33;14.00;;;-6.60;99.90;;;;;;5044104;28;20025;-64
2024/01/11 04:43:40;;;;;;;34.33;13.53;;;-6.50;99.90;;;;;;5047629;28;20376;-64
2024/01/11 04:46:18;;;;;;;34.50;13.27;;;-6.50;99.90;;;;;;5036860;28;20025;-64
2024/01/11 04:48:45;;;;;;;31.67;11.53;;;-6.60;99.90;;;;;;5050602;28;20053;-64
2024/01/11 04:51:12;;;;;;;36.93;13.23;;;-6.60;99.90;;;;;;5045700;28;20021;-63
2024/01/11 04:53:39;;;;;;;38.43;14.17;;;-6.70;99.90;;;;;;5042608;28;20037;-64
2024/01/11 04:56:06;;;;;;;33.77;13.40;;;-6.70;99.90;;;;;;5043631;28;20588;-64
2024/01/11 04:58:32;;;;;;;36.63;14.63;;;-6.70;99.90;;;;;;5050049;28;20053;-64
2024/01/11 05:00:57;;;;;;;36.33;13.17;;;-6.80;99.90;;;;;;5042410;28;20060;-63
2024/01/11 05:03:23;;;;;;;38.07;14.40;;;-6.80;99.90;;;;;;5046667;28;20024;-64
2024/01/11 05:05:48;;;;;;;35.50;12.47;;;-6.80;99.90;;;;;;5040202;28;20114;-62
2024/01/11 05:08:14;;;;;;;34.93;13.10;;;-6.80;99.90;;;;;;5044148;28;20391;-63
2024/01/11 05:10:40;;;;;;;25.93;11.30;;;-6.80;99.90;;;;;;5047799;28;20082;-64
2024/01/11 05:13:05;;;;;;;31.57;13.10;;;-6.90;99.90;;;;;;5045074;28;20028;-63
2024/01/11 05:15:31;;;;;;;32.13;13.07;;;-6.90;99.90;;;;;;5049539;28;20025;-64
2024/01/11 05:17:56;;;;;;;33.80;12.40;;;-7.00;99.90;;;;;;5043738;28;20380;-64
2024/01/11 05:20:22;;;;;;;36.63;14.10;;;-6.90;99.90;;;;;;5033242;28;20125;-63
2024/01/11 05:22:48;;;;;;;42.23;14.90;;;-7.00;99.90;;;;;;5035837;28;20058;-63
2024/01/11 05:25:14;;;;;;;33.10;14.23;;;-7.00;99.90;;;;;;5041177;28;20678;-64
2024/01/11 05:27:39;;;;;;;42.73;14.37;;;-7.00;99.90;;;;;;5046580;28;20028;-67
2024/01/11 05:30:06;;;;;;;34.60;13.67;;;-7.00;99.90;;;;;;5046329;28;20471;-64
2024/01/11 05:32:31;;;;;;;29.40;13.63;;;-7.10;99.90;;;;;;5046792;28;20089;-64
2024/01/11 05:34:57;;;;;;;37.90;13.67;;;-7.10;99.90;;;;;;5046536;28;20590;-64
2024/01/11 05:37:22;;;;;;;39.93;13.83;;;-7.10;99.90;;;;;;5044378;28;20057;-62
2024/01/11 05:39:48;;;;;;;42.07;14.77;;;-7.00;99.90;;;;;;5044335;28;20032;-63
2024/01/11 05:42:14;;;;;;;34.87;13.87;;;-7.10;99.90;;;;;;5045842;28;20033;-63
2024/01/11 05:44:39;;;;;;;32.90;12.53;;;-7.10;99.90;;;;;;5049664;28;20062;-63
2024/01/11 05:47:05;;;;;;;42.00;15.03;;;-7.10;99.90;;;;;;5048492;28;20025;-63
2024/01/11 05:49:30;;;;;;;36.23;14.20;;;-7.20;99.90;;;;;;5051259;28;20051;-64
2024/01/11 05:51:56;;;;;;;35.87;13.50;;;-7.20;99.90;;;;;;5044003;28;20044;-63
2024/01/11 05:54:22;;;;;;;38.17;14.37;;;-7.20;99.90;;;;;;5049577;28;20163;-63
2024/01/11 05:56:47;;;;;;;37.73;14.90;;;-7.20;99.90;;;;;;5051279;28;20040;-62
2024/01/11 05:59:13;;;;;;;27.73;12.00;;;-7.20;99.90;;;;;;5051012;28;20044;-64
2024/01/11 06:01:46;;;;;;;31.73;13.20;;;-7.20;99.90;;;;;;5047856;28;20028;-64
2024/01/11 06:04:11;;;;;;;33.25;13.18;;;-7.10;99.90;;;;;;5048863;28;20649;-64
2024/01/11 06:06:37;;;;;;;40.93;13.67;;;-7.10;99.90;;;;;;5044840;28;20033;-64
2024/01/11 06:09:04;;;;;;;33.83;13.03;;;-7.10;99.90;;;;;;5048110;28;20040;-64
2024/01/11 06:11:30;;;;;;;36.27;14.33;;;-7.10;99.90;;;;;;5049616;28;20028;-64
2024/01/11 06:13:55;;;;;;;39.07;13.43;;;-7.10;99.90;;;;;;5040256;28;20029;-64
2024/01/11 06:16:21;;;;;;;44.67;15.87;;;-7.10;99.90;;;;;;5051792;28;20107;-64
2024/01/11 06:18:47;;;;;;;40.00;16.87;;;-7.10;99.90;;;;;;5052439;28;20044;-64
2024/01/11 06:21:12;;;;;;;41.40;15.30;;;-7.10;99.90;;;;;;5043419;28;20464;-64
2024/01/11 06:23:38;;;;;;;40.47;13.47;;;-7.20;99.90;;;;;;5047204;28;20032;-64
2024/01/11 06:26:04;;;;;;;37.87;14.93;;;-7.20;99.90;;;;;;5040398;28;20030;-62
2024/01/11 06:28:29;;;;;;;39.33;14.90;;;-7.20;99.90;;;;;;5050770;28;20030;-64
2024/01/11 06:30:55;;;;;;;33.03;14.23;;;-7.20;99.90;;;;;;5050843;28;20040;-63
2024/01/11 06:33:21;;;;;;;42.77;15.57;;;-7.20;99.90;;;;;;5050737;28;20021;-64
2024/01/11 06:35:46;;;;;;;41.63;16.87;;;-7.30;99.90;;;;;;5044629;28;20026;-64
2024/01/11 06:38:12;;;;;;;39.60;14.40;;;-7.40;99.90;;;;;;5044706;28;20033;-64
2024/01/11 06:40:38;;;;;;;34.57;15.47;;;-7.40;99.90;;;;;;5048916;28;20029;-66
2024/01/11 06:43:03;;;;;;;45.00;15.60;;;-7.50;99.90;;;;;;5046051;28;20398;-65
2024/01/11 06:45:29;;;;;;;39.07;15.63;;;-7.50;99.90;;;;;;5053983;28;20106;-66
2024/01/11 06:47:54;;;;;;;42.60;16.03;;;-7.50;99.90;;;;;;5048420;28;20029;-65
2024/01/11 06:50:20;;;;;;;40.10;14.53;;;-7.50;99.90;;;;;;5043121;28;20110;-65
2024/01/11 06:52:46;;;;;;;42.83;15.57;;;-7.50;99.90;;;;;;5052196;28;20422;-65
2024/01/11 06:55:11;;;;;;;41.57;15.53;;;-7.50;99.90;;;;;;5041613;28;20084;-63
2024/01/11 06:57:37;;;;;;;42.70;16.20;;;-7.40;99.90;;;;;;5047731;28;20033;-63
2024/01/11 07:00:03;;;;;;;41.90;16.23;;;-7.50;99.90;;;;;;5045598;28;20026;-64
2024/01/11 07:02:28;;;;;;;46.87;19.07;;;-7.50;99.90;;;;;;5046399;28;20055;-63
2024/01/11 07:04:54;;;;;;;54.23;19.43;;;-7.50;99.90;;;;;;5046284;28;20431;-61
2024/01/11 07:07:19;;;;;;;45.23;17.10;;;-7.60;99.90;;;;;;5045415;28;20049;-64
2024/01/11 07:09:45;;;;;;;40.67;15.50;;;-7.60;99.90;;;;;;5024089;28;20045;-62
2024/01/11 07:12:11;;;;;;;46.90;16.07;;;-7.60;99.90;;;;;;5049336;28;20033;-64
2024/01/11 07:14:36;;;;;;;52.00;17.10;;;-7.70;99.90;;;;;;5045810;28;20027;-64
2024/01/11 07:17:03;;;;;;;44.20;16.30;;;-7.70;99.90;;;;;;5046250;28;20029;-64
2024/01/11 07:19:29;;;;;;;42.50;14.93;;;-7.80;99.90;;;;;;5046596;28;20071;-64
2024/01/11 07:21:54;;;;;;;41.00;15.50;;;-7.80;99.90;;;;;;5047890;28;20044;-64
2024/01/11 07:24:20;;;;;;;39.23;14.73;;;-7.80;99.90;;;;;;5050498;28;20025;-64
2024/01/11 07:26:46;;;;;;;41.10;16.63;;;-7.80;99.90;;;;;;5047638;28;20082;-63
2024/01/11 07:29:11;;;;;;;65.90;21.53;;;-7.90;99.90;;;;;;5044683;28;20025;-63
2024/01/11 07:31:37;;;;;;;171.07;44.80;;;-7.80;99.90;;;;;;5044414;28;20168;-63
2024/01/11 07:34:02;;;;;;;113.87;35.83;;;-7.70;99.90;;;;;;5048251;28;20498;-63
2024/01/11 07:36:28;;;;;;;50.47;20.90;;;-7.70;99.90;;;;;;5049119;28;20428;-63
2024/01/11 07:38:54;;;;;;;44.23;17.67;;;-7.70;99.90;;;;;;5044016;28;20057;-64
2024/01/11 07:41:22;;;;;;;45.20;16.20;;;-7.70;99.90;;;;;;5042056;28;20527;-65
2024/01/11 07:43:48;;;;;;;49.63;17.50;;;-7.70;99.90;;;;;;5047061;28;20033;-64
2024/01/11 07:46:13;;;;;;;43.57;15.93;;;-7.70;99.90;;;;;;5039043;28;20108;-63
2024/01/11 07:48:39;;;;;;;47.60;18.30;;;-7.60;99.90;;;;;;5044002;28;20049;-64
2024/01/11 07:51:05;;;;;;;54.47;20.50;;;-7.60;99.90;;;;;;5047840;28;20032;-63
2024/01/11 07:53:31;;;;;;;76.27;27.73;;;-7.50;99.90;;;;;;5052480;28;20041;-64
2024/01/11 07:55:57;;;;;;;52.37;18.90;;;-7.40;99.90;;;;;;5041710;28;20041;-64
2024/01/11 07:58:23;;;;;;;58.93;17.57;;;-7.40;99.90;;;;;;5040351;28;20039;-64
2024/01/11 08:00:49;;;;;;;42.27;17.70;;;-7.30;99.90;;;;;;5039590;28;20033;-64
2024/01/11 08:03:14;;;;;;;43.60;17.30;;;-7.30;99.90;;;;;;5045620;28;20032;-62
2024/01/11 08:05:40;;;;;;;43.93;15.60;;;-7.30;99.90;;;;;;5052809;28;20475;-62
2024/01/11 08:08:06;;;;;;;46.23;16.63;;;-7.20;99.90;;;;;;5052901;28;20092;-63
2024/01/11 08:10:32;;;;;;;40.97;15.93;;;-7.10;99.90;;;;;;5052678;28;20044;-61
2024/01/11 08:12:59;;;;;;;39.97;14.70;;;-7.20;99.90;;;;;;5052334;28;20679;-62
2024/01/11 08:15:25;;;;;;;41.43;15.10;;;-7.10;99.90;;;;;;5024641;28;20048;-62
2024/01/11 08:17:50;;;;;;;42.30;15.93;;;-7.20;99.90;;;;;;5037741;28;20466;-62
2024/01/11 08:20:16;;;;;;;36.33;15.77;;;-7.20;99.90;;;;;;5052482;28;20060;-63
2024/01/11 08:22:46;;;;;;;41.43;14.30;;;-7.10;99.90;;;;;;5052157;28;20032;-61
2024/01/11 08:25:13;;;;;;;44.50;16.07;;;-7.10;99.90;;;;;;5051558;28;20104;-62
2024/01/11 08:27:38;;;;;;;42.43;16.40;;;-7.10;99.90;;;;;;5050885;28;20071;-62
2024/01/11 08:30:05;;;;;;;42.50;16.30;;;-7.00;99.90;;;;;;5052216;28;20445;-63
2024/01/11 08:32:30;;;;;;;47.60;18.37;;;-6.90;99.90;;;;;;5052070;28;20375;-62
2024/01/11 08:34:59;;;;;;;38.23;15.87;;;-6.90;99.90;;;;;;5052108;28;20025;-61
2024/01/11 08:37:25;;;;;;;33.10;16.20;;;-6.90;99.90;;;;;;5051811;28;20070;-63
2024/01/11 08:39:50;;;;;;;34.57;14.67;;;-6.90;99.90;;;;;;5051059;28;20029;-63
2024/01/11 08:42:16;;;;;;;44.23;15.87;;;-6.90;99.90;;;;;;5052036;28;20035;-63
2024/01/11 08:44:42;;;;;;;42.00;14.63;;;-6.80;99.90;;;;;;5047594;28;20170;-62
2024/01/11 08:47:14;;;;;;;37.60;13.67;;;-6.80;99.90;;;;;;5068429;28;20789;-61
2024/01/11 08:49:40;;;;;;;40.60;14.10;;;-6.70;99.90;;;;;;5068218;28;20036;-61
2024/01/11 08:52:07;;;;;;;36.47;14.60;;;-6.60;99.90;;;;;;5068147;28;20394;-60
2024/01/11 08:54:33;;;;;;;56.43;14.67;;;-6.60;99.90;;;;;;5068297;28;20501;-61
2024/01/11 08:56:59;;;;;;;38.13;15.80;;;-6.50;99.90;;;;;;5067815;28;20412;-60
2024/01/11 08:59:25;;;;;;;39.20;13.53;;;-6.50;99.90;;;;;;5067906;28;20107;-61
2024/01/11 09:01:52;;;;;;;38.37;14.87;;;-6.40;99.90;;;;;;5067858;28;20046;-61
2024/01/11 09:04:18;;;;;;;36.17;13.10;;;-6.30;99.90;;;;;;5067681;28;20774;-60
2024/01/11 09:06:44;;;;;;;38.10;14.27;;;-6.30;99.90;;;;;;5067796;28;20055;-61
2024/01/11 09:09:13;;;;;;;36.73;13.67;;;-6.20;99.90;;;;;;5067961;28;20025;-61
2024/01/11 09:11:40;;;;;;;39.13;14.77;;;-6.20;99.90;;;;;;5067790;28;20109;-60
2024/01/11 09:14:11;;;;;;;40.13;14.00;;;-6.10;99.90;;;;;;5048344;28;20042;-61
2024/01/11 09:16:36;;;;;;;37.28;15.20;;;-6.00;99.90;;;;;;5028559;28;20419;-60
2024/01/11 09:19:02;;;;;;;33.55;15.63;;;-5.90;99.90;;;;;;5047726;28;20025;-59
2024/01/11 09:21:28;;;;;;;40.00;15.32;;;-5.90;99.90;;;;;;5047807;28;20035;-61
2024/01/11 09:23:53;;;;;;;36.85;13.95;;;-5.80;99.90;;;;;;5047843;28;20030;-61
2024/01/11 09:26:19;;;;;;;47.28;17.02;;;-5.70;99.90;;;;;;5047502;28;20033;-61
2024/01/11 09:28:45;;;;;;;45.78;17.38;;;-5.70;99.90;;;;;;5044893;28;20075;-60
2024/01/11 09:31:11;;;;;;;31.50;14.38;;;-5.60;99.90;;;;;;5035773;28;20104;-61
2024/01/11 09:33:37;;;;;;;38.40;14.48;;;-5.60;99.90;;;;;;5041539;28;20112;-62
2024/01/11 09:36:03;;;;;;;38.25;15.35;;;-5.50;99.90;;;;;;5036879;28;20120;-62
2024/01/11 09:38:29;;;;;;;47.17;17.00;;;-5.40;99.90;;;;;;5028817;28;20432;-62
2024/01/11 09:41:07;;;;;;;46.20;15.55;;;-5.30;99.90;;;;;;5035272;28;20029;-61
2024/01/11 09:43:36;;;;;;;37.38;14.85;;;-5.30;99.90;;;;;;5034551;28;20127;-62
2024/01/11 09:46:06;;;;;;;45.55;16.40;;;-5.20;99.90;;;;;;5038089;28;20435;-61
2024/01/11 09:48:35;;;;;;;37.78;15.77;;;-5.10;99.90;;;;;;5026609;28;20113;-62
2024/01/11 09:51:03;;;;;;;43.95;17.92;;;-5.00;99.90;;;;;;5039782;28;20029;-63
2024/01/11 09:53:33;;;;;;;43.10;14.73;;;-5.00;99.90;;;;;;5038943;28;20076;-65
2024/01/11 09:56:03;;;;;;;41.00;15.95;;;-5.00;99.90;;;;;;5038405;28;20026;-64
2024/01/11 09:58:29;;;;;;;31.08;14.15;;;-4.90;99.90;;;;;;5028430;28;20038;-64
2024/01/11 10:00:56;;;;;;;42.20;17.10;;;-4.80;99.90;;;;;;5025335;28;20109;-64
2024/01/11 10:03:26;;;;;;;46.92;16.90;;;-4.80;99.90;;;;;;5023576;28;20033;-64
2024/01/11 10:05:56;;;;;;;45.33;17.38;;;-4.80;99.90;;;;;;5020976;28;20107;-65
2024/01/11 10:08:23;;;;;;;47.72;17.20;;;-4.70;99.90;;;;;;5020672;28;20026;-65
2024/01/11 10:10:48;;;;;;;45.17;17.80;;;-4.60;99.90;;;;;;5020347;28;20042;-65
2024/01/11 10:13:18;;;;;;;41.88;15.68;;;-4.50;99.90;;;;;;5015441;28;20036;-65
2024/01/11 10:15:44;;;;;;;45.00;18.27;;;-4.50;99.90;;;;;;5013032;28;20050;-65
2024/01/11 10:18:10;;;;;;;40.78;16.17;;;-4.40;99.90;;;;;;5031523;28;20041;-65
2024/01/11 10:20:37;;;;;;;43.85;18.27;;;-4.40;99.90;;;;;;5024660;28;20549;-65
2024/01/11 10:23:03;;;;;;;42.42;17.17;;;-4.30;99.90;;;;;;5022620;28;20559;-64
2024/01/11 10:25:29;;;;;;;47.13;16.42;;;-4.30;99.90;;;;;;5030173;28;20045;-65
2024/01/11 10:27:55;;;;;;;45.85;16.58;;;-4.20;99.90;;;;;;5027255;28;20471;-64
2024/01/11 10:30:22;;;;;;;43.00;17.23;;;-4.10;99.90;;;;;;5028080;28;20065;-65
2024/01/11 10:32:49;;;;;;;42.85;18.27;;;-4.00;99.90;;;;;;5028931;28;20568;-65
2024/01/11 10:35:17;;;;;;;59.45;22.80;;;-3.90;99.90;;;;;;5022636;28;20129;-65
2024/01/11 10:37:44;;;;;;;55.03;20.67;;;-3.90;99.90;;;;;;5024845;28;20159;-66
2024/01/11 10:40:12;;;;;;;48.50;19.48;;;-3.80;99.90;;;;;;5027379;28;20108;-67
2024/01/11 10:42:45;;;;;;;49.45;18.73;;;-3.70;99.90;;;;;;5021111;28;20472;-65
2024/01/11 10:45:17;;;;;;;44.92;19.02;;;-3.60;99.90;;;;;;5023812;28;20045;-64
2024/01/11 10:47:52;;;;;;;38.97;18.27;;;-3.60;99.90;;;;;;5021457;28;20060;-65
2024/01/11 10:50:19;;;;;;;41.22;17.13;;;-3.50;99.90;;;;;;5020420;28;20040;-65
2024/01/11 10:53:02;;;;;;;48.50;17.85;;;-3.50;99.90;;;;;;5026215;28;20056;-65
2024/01/11 10:55:31;;;;;;;40.63;17.85;;;-3.40;99.90;;;;;;5026148;28;20029;-65
2024/01/11 10:57:59;;;;;;;44.92;19.92;;;-3.30;99.90;;;;;;5025246;28;20522;-65
2024/01/11 11:00:25;;;;;;;48.35;19.80;;;-3.20;99.90;;;;;;5029221;28;20391;-65
2024/01/11 11:02:54;;;;;;;46.40;19.13;;;-3.10;99.90;;;;;;5030549;28;20040;-64
2024/01/11 11:05:21;;;;;;;48.10;19.20;;;-3.00;99.90;;;;;;5030462;28;20471;-64
2024/01/11 11:07:51;;;;;;;45.97;20.42;;;-3.00;99.90;;;;;;5023935;28;20630;-64
2024/01/11 11:10:19;;;;;;;41.20;20.33;;;-2.90;99.90;;;;;;5024799;28;20045;-64
2024/01/11 11:12:46;;;;;;;42.60;20.50;;;-2.80;99.90;;;;;;5024079;28;20053;-65
2024/01/11 11:15:12;;;;;;;45.40;19.88;;;-2.80;99.90;;;;;;5008477;28;20041;-65
2024/01/11 11:17:39;;;;;;;47.05;18.42;;;-2.60;99.90;;;;;;5019827;28;20037;-65
2024/01/11 11:20:08;;;;;;;44.38;18.63;;;-2.60;99.90;;;;;;5016438;28;20096;-64
2024/01/11 11:22:36;;;;;;;46.80;19.52;;;-2.50;99.90;;;;;;5024425;28;20065;-65
2024/01/11 11:25:25;;;;;;;45.58;18.70;;;-2.40;99.90;;;;;;5017455;28;20433;-66
2024/01/11 11:27:53;;;;;;;45.45;18.98;;;-2.30;99.90;;;;;;5012856;28;20042;-65
2024/01/11 11:30:20;;;;;;;47.85;18.80;;;-2.20;99.90;;;;;;5023351;28;20022;-65
2024/01/11 11:32:46;;;;;;;43.47;18.85;;;-2.10;99.90;;;;;;5029136;28;20392;-65
2024/01/11 11:35:11;;;;;;;43.78;20.85;;;-2.00;99.90;;;;;;5025416;28;20471;-66
2024/01/11 11:37:38;;;;;;;46.53;20.63;;;-2.00;99.90;;;;;;5018098;28;20029;-64
2024/01/11 11:40:06;;;;;;;54.28;20.52;;;-1.90;99.90;;;;;;5005597;28;20033;-64
2024/01/11 11:42:35;;;;;;;47.63;20.17;;;-1.90;99.90;;;;;;5026101;28;20044;-64
2024/01/11 11:45:01;;;;;;;46.33;19.42;;;-1.80;99.90;;;;;;5021065;28;20124;-65
2024/01/11 11:47:35;;;;;;;44.85;19.30;;;-1.80;99.90;;;;;;5022180;28;20841;-64
2024/01/11 11:50:07;;;;;;;39.47;18.13;;;-1.60;99.90;;;;;;5013828;28;20076;-64
2024/01/11 11:52:34;;;;;;;51.65;21.02;;;-1.70;99.90;;;;;;5027554;28;20060;-64
2024/01/11 11:55:01;;;;;;;44.13;18.50;;;-1.70;99.90;;;;;;5024658;28;20464;-65
2024/01/11 11:57:28;;;;;;;57.00;20.08;;;-1.60;99.90;;;;;;5026902;28;20038;-65
2024/01/11 11:59:57;;;;;;;42.72;17.73;;;-1.60;99.90;;;;;;5023015;28;20108;-65
2024/01/11 12:02:24;;;;;;;35.08;17.15;;;-1.50;99.90;;;;;;5020771;28;20068;-65
2024/01/11 12:04:50;;;;;;;43.95;18.10;;;-1.50;99.90;;;;;;5023428;28;20030;-66
2024/01/11 12:07:16;;;;;;;51.83;20.80;;;-1.40;99.90;;;;;;5021120;28;20067;-65
2024/01/11 12:09:42;;;;;;;45.33;18.40;;;-1.40;99.90;;;;;;5023422;28;20029;-65
2024/01/11 12:12:08;;;;;;;45.35;18.42;;;-1.30;99.90;;;;;;5026564;28;20037;-65
2024/01/11 12:14:34;;;;;;;45.08;18.08;;;-1.30;99.90;;;;;;5022522;28;20067;-66
2024/01/11 12:17:00;;;;;;;44.92;19.30;;;-1.30;99.90;;;;;;5011951;28;20072;-65
2024/01/11 12:19:26;;;;;;;55.45;20.60;;;-1.30;99.90;;;;;;5024319;28;20117;-65
2024/01/11 12:21:51;;;;;;;40.75;18.35;;;-1.30;99.90;;;;;;5021646;28;20079;-65